sensor_id;sensor_type;location;lat;lon;timestamp;temperature;humidity
22827;DHT22;11580;52.562;13.418;2024-03-02T00:00:51;12.90;31.40
22827;DHT22;11580;52.562;13.418;2024-03-02T00:03:21;12.90;31.70
22827;DHT22;11580;52.562;13.418;2024-03-02T00:05:51;12.90;31.60
22827;DHT22;11580;52.562;13.418;2024-03-02T00:08:23;13.00;31.80
22827;DHT22;11580;52.562;13.418;2024-03-02T00:10:53;12.90;31.70
22827;DHT22;11580;52.562;13.418;2024-03-02T00:13:24;12.90;31.30
22827;DHT22;11580;52.562;13.418;2024-03-02T00:15:53;12.90;31.40
22827;DHT22;11580;52.562;13.418;2024-03-02T00:18:27;12.90;31.40
22827;DHT22;11580;52.562;13.418;2024-03-02T00:20:58;12.80;31.70
22827;DHT22;11580;52.562;13.418;2024-03-02T00:23:29;12.80;31.40
22827;DHT22;11580;52.562;13.418;2024-03-02T00:25:57;12.80;31.50
22827;DHT22;11580;52.562;13.418;2024-03-02T00:28:27;12.80;31.50
22827;DHT22;11580;52.562;13.418;2024-03-02T00:31:01;12.80;31.80
22827;DHT22;11580;52.562;13.418;2024-03-02T00:33:35;12.80;32.50
22827;DHT22;11580;52.562;13.418;2024-03-02T00:36:05;12.80;32.10
22827;DHT22;11580;52.562;13.418;2024-03-02T00:38:34;12.80;31.90
22827;DHT22;11580;52.562;13.418;2024-03-02T00:41:16;12.90;31.90
22827;DHT22;11580;52.562;13.418;2024-03-02T00:43:56;12.90;32.10
22827;DHT22;11580;52.562;13.418;2024-03-02T00:46:24;12.90;31.80
22827;DHT22;11580;52.562;13.418;2024-03-02T00:48:54;13.00;32.50
22827;DHT22;11580;52.562;13.418;2024-03-02T00:51:23;13.00;31.80
22827;DHT22;11580;52.562;13.418;2024-03-02T00:53:52;13.00;31.60
22827;DHT22;11580;52.562;13.418;2024-03-02T00:56:21;13.00;31.60
22827;DHT22;11580;52.562;13.418;2024-03-02T00:58:49;13.00;31.60
22827;DHT22;11580;52.562;13.418;2024-03-02T01:01:17;13.00;32.20
22827;DHT22;11580;52.562;13.418;2024-03-02T01:03:45;13.00;31.50
22827;DHT22;11580;52.562;13.418;2024-03-02T01:06:14;13.00;31.60
22827;DHT22;11580;52.562;13.418;2024-03-02T01:08:42;13.00;31.60
22827;DHT22;11580;52.562;13.418;2024-03-02T01:11:09;13.10;31.70
22827;DHT22;11580;52.562;13.418;2024-03-02T01:13:37;13.10;31.80
22827;DHT22;11580;52.562;13.418;2024-03-02T01:16:04;13.10;31.80
22827;DHT22;11580;52.562;13.418;2024-03-02T01:18:32;13.10;31.90
22827;DHT22;11580;52.562;13.418;2024-03-02T01:20:59;13.20;32.00
22827;DHT22;11580;52.562;13.418;2024-03-02T01:23:28;13.20;32.00
22827;DHT22;11580;52.562;13.418;2024-03-02T01:25:55;13.30;32.10
22827;DHT22;11580;52.562;13.418;2024-03-02T01:28:23;13.30;32.00
22827;DHT22;11580;52.562;13.418;2024-03-02T01:30:50;13.30;32.00
22827;DHT22;11580;52.562;13.418;2024-03-02T01:33:17;13.30;32.00
22827;DHT22;11580;52.562;13.418;2024-03-02T01:35:44;13.30;32.00
22827;DHT22;11580;52.562;13.418;2024-03-02T01:38:11;13.30;32.10
22827;DHT22;11580;52.562;13.418;2024-03-02T01:40:40;13.30;32.10
22827;DHT22;11580;52.562;13.418;2024-03-02T01:43:10;13.30;32.30
22827;DHT22;11580;52.562;13.418;2024-03-02T01:45:37;13.40;32.40
22827;DHT22;11580;52.562;13.418;2024-03-02T01:48:06;13.40;32.40
22827;DHT22;11580;52.562;13.418;2024-03-02T01:50:34;13.40;32.50
22827;DHT22;11580;52.562;13.418;2024-03-02T01:53:02;13.40;32.40
22827;DHT22;11580;52.562;13.418;2024-03-02T01:55:29;13.40;32.40
22827;DHT22;11580;52.562;13.418;2024-03-02T01:57:58;13.40;32.50
22827;DHT22;11580;52.562;13.418;2024-03-02T02:00:25;13.40;32.60
22827;DHT22;11580;52.562;13.418;2024-03-02T02:02:53;13.40;32.60
22827;DHT22;11580;52.562;13.418;2024-03-02T02:05:20;13.40;32.70
22827;DHT22;11580;52.562;13.418;2024-03-02T02:07:48;13.30;32.60
22827;DHT22;11580;52.562;13.418;2024-03-02T02:10:15;13.30;32.80
22827;DHT22;11580;52.562;13.418;2024-03-02T02:12:43;13.30;33.00
22827;DHT22;11580;52.562;13.418;2024-03-02T02:15:25;13.30;33.00
22827;DHT22;11580;52.562;13.418;2024-03-02T02:17:53;13.30;34.40
22827;DHT22;11580;52.562;13.418;2024-03-02T02:20:21;13.30;33.40
22827;DHT22;11580;52.562;13.418;2024-03-02T02:22:59;13.30;33.40
22827;DHT22;11580;52.562;13.418;2024-03-02T02:25:27;13.30;34.00
22827;DHT22;11580;52.562;13.418;2024-03-02T02:27:55;13.30;33.40
22827;DHT22;11580;52.562;13.418;2024-03-02T02:30:24;13.30;33.50
22827;DHT22;11580;52.562;13.418;2024-03-02T02:32:53;13.30;33.40
22827;DHT22;11580;52.562;13.418;2024-03-02T02:35:20;13.30;33.40
22827;DHT22;11580;52.562;13.418;2024-03-02T02:37:50;13.30;33.30
22827;DHT22;11580;52.562;13.418;2024-03-02T02:40:20;13.30;33.20
22827;DHT22;11580;52.562;13.418;2024-03-02T02:42:47;13.30;33.30
22827;DHT22;11580;52.562;13.418;2024-03-02T02:45:15;13.30;33.20
22827;DHT22;11580;52.562;13.418;2024-03-02T02:47:42;13.30;33.40
22827;DHT22;11580;52.562;13.418;2024-03-02T02:50:11;13.20;34.20
22827;DHT22;11580;52.562;13.418;2024-03-02T02:52:40;13.20;33.70
22827;DHT22;11580;52.562;13.418;2024-03-02T02:55:08;13.30;33.80
22827;DHT22;11580;52.562;13.418;2024-03-02T02:57:39;13.30;33.90
22827;DHT22;11580;52.562;13.418;2024-03-02T03:00:09;13.30;34.30
22827;DHT22;11580;52.562;13.418;2024-03-02T03:02:40;13.30;34.20
22827;DHT22;11580;52.562;13.418;2024-03-02T03:05:09;13.30;34.20
22827;DHT22;11580;52.562;13.418;2024-03-02T03:07:39;13.30;34.30
22827;DHT22;11580;52.562;13.418;2024-03-02T03:10:07;13.40;34.50
22827;DHT22;11580;52.562;13.418;2024-03-02T03:12:35;13.40;34.60
22827;DHT22;11580;52.562;13.418;2024-03-02T03:15:05;13.50;34.80
22827;DHT22;11580;52.562;13.418;2024-03-02T03:17:34;13.50;35.00
22827;DHT22;11580;52.562;13.418;2024-03-02T03:20:01;13.60;34.90
22827;DHT22;11580;52.562;13.418;2024-03-02T03:22:29;13.60;35.00
22827;DHT22;11580;52.562;13.418;2024-03-02T03:24:57;13.60;35.10
22827;DHT22;11580;52.562;13.418;2024-03-02T03:27:25;13.70;35.20
22827;DHT22;11580;52.562;13.418;2024-03-02T03:29:52;13.70;35.90
22827;DHT22;11580;52.562;13.418;2024-03-02T03:32:21;13.80;35.30
22827;DHT22;11580;52.562;13.418;2024-03-02T03:34:48;13.80;35.40
22827;DHT22;11580;52.562;13.418;2024-03-02T03:37:16;13.90;36.00
22827;DHT22;11580;52.562;13.418;2024-03-02T03:39:43;14.00;35.40
22827;DHT22;11580;52.562;13.418;2024-03-02T03:42:10;14.00;36.00
22827;DHT22;11580;52.562;13.418;2024-03-02T03:44:37;14.00;35.30
22827;DHT22;11580;52.562;13.418;2024-03-02T03:47:05;14.00;35.20
22827;DHT22;11580;52.562;13.418;2024-03-02T03:49:34;14.10;35.40
22827;DHT22;11580;52.562;13.418;2024-03-02T03:52:01;14.30;35.60
22827;DHT22;11580;52.562;13.418;2024-03-02T03:54:29;14.10;35.20
22827;DHT22;11580;52.562;13.418;2024-03-02T03:56:56;14.20;35.20
22827;DHT22;11580;52.562;13.418;2024-03-02T03:59:23;14.20;35.10
22827;DHT22;11580;52.562;13.418;2024-03-02T04:01:51;14.20;35.70
22827;DHT22;11580;52.562;13.418;2024-03-02T04:04:19;14.30;35.10
22827;DHT22;11580;52.562;13.418;2024-03-02T04:06:47;14.30;35.10
22827;DHT22;11580;52.562;13.418;2024-03-02T04:09:14;14.30;35.80
22827;DHT22;11580;52.562;13.418;2024-03-02T04:11:42;14.30;35.70
22827;DHT22;11580;52.562;13.418;2024-03-02T04:14:09;14.40;35.00
22827;DHT22;11580;52.562;13.418;2024-03-02T04:16:38;14.40;34.90
22827;DHT22;11580;52.562;13.418;2024-03-02T04:19:05;14.40;34.90
22827;DHT22;11580;52.562;13.418;2024-03-02T04:21:32;14.60;35.00
22827;DHT22;11580;52.562;13.418;2024-03-02T04:24:01;14.50;34.90
22827;DHT22;11580;52.562;13.418;2024-03-02T04:26:28;14.50;34.90
22827;DHT22;11580;52.562;13.418;2024-03-02T04:28:56;14.50;34.80
22827;DHT22;11580;52.562;13.418;2024-03-02T04:31:23;14.50;35.40
22827;DHT22;11580;52.562;13.418;2024-03-02T04:33:50;14.60;34.70
22827;DHT22;11580;52.562;13.418;2024-03-02T04:36:17;14.60;34.70
22827;DHT22;11580;52.562;13.418;2024-03-02T04:38:44;14.60;35.40
22827;DHT22;11580;52.562;13.418;2024-03-02T04:41:13;14.60;35.40
22827;DHT22;11580;52.562;13.418;2024-03-02T04:43:40;14.60;34.70
22827;DHT22;11580;52.562;13.418;2024-03-02T04:46:07;14.60;35.30
22827;DHT22;11580;52.562;13.418;2024-03-02T04:48:34;14.60;34.50
22827;DHT22;11580;52.562;13.418;2024-03-02T04:51:01;14.60;35.30
22827;DHT22;11580;52.562;13.418;2024-03-02T04:53:29;14.60;34.50
22827;DHT22;11580;52.562;13.418;2024-03-02T04:55:56;14.60;34.50
22827;DHT22;11580;52.562;13.418;2024-03-02T04:59:06;14.60;34.60
22827;DHT22;11580;52.562;13.418;2024-03-02T05:01:33;14.70;34.70
22827;DHT22;11580;52.562;13.418;2024-03-02T05:04:00;14.60;34.50
22827;DHT22;11580;52.562;13.418;2024-03-02T05:06:27;14.60;34.60
22827;DHT22;11580;52.562;13.418;2024-03-02T05:08:55;14.60;34.60
22827;DHT22;11580;52.562;13.418;2024-03-02T05:11:23;14.60;34.60
22827;DHT22;11580;52.562;13.418;2024-03-02T05:14:15;14.60;34.70
22827;DHT22;11580;52.562;13.418;2024-03-02T05:16:41;14.60;34.70
22827;DHT22;11580;52.562;13.418;2024-03-02T05:19:09;14.60;34.70
22827;DHT22;11580;52.562;13.418;2024-03-02T05:21:36;14.60;34.70
22827;DHT22;11580;52.562;13.418;2024-03-02T05:24:03;14.60;35.40
22827;DHT22;11580;52.562;13.418;2024-03-02T05:26:30;14.70;34.80
22827;DHT22;11580;52.562;13.418;2024-03-02T05:28:57;14.70;34.80
22827;DHT22;11580;52.562;13.418;2024-03-02T05:31:26;14.70;35.40
22827;DHT22;11580;52.562;13.418;2024-03-02T05:33:53;14.70;34.80
22827;DHT22;11580;52.562;13.418;2024-03-02T05:36:20;14.70;34.80
22827;DHT22;11580;52.562;13.418;2024-03-02T05:38:47;14.70;34.70
22827;DHT22;11580;52.562;13.418;2024-03-02T05:41:15;14.70;34.70
22827;DHT22;11580;52.562;13.418;2024-03-02T05:43:42;14.70;34.70
22827;DHT22;11580;52.562;13.418;2024-03-02T05:46:09;14.70;34.70
22827;DHT22;11580;52.562;13.418;2024-03-02T05:48:37;14.70;34.60
22827;DHT22;11580;52.562;13.418;2024-03-02T05:51:04;14.80;34.80
22827;DHT22;11580;52.562;13.418;2024-03-02T05:53:32;14.80;34.70
22827;DHT22;11580;52.562;13.418;2024-03-02T05:55:59;14.80;34.60
22827;DHT22;11580;52.562;13.418;2024-03-02T05:58:26;14.80;34.60
22827;DHT22;11580;52.562;13.418;2024-03-02T06:01:03;14.80;34.60
22827;DHT22;11580;52.562;13.418;2024-03-02T06:03:31;14.80;34.50
22827;DHT22;11580;52.562;13.418;2024-03-02T06:06:00;14.80;34.50
22827;DHT22;11580;52.562;13.418;2024-03-02T06:08:27;14.80;35.20
22827;DHT22;11580;52.562;13.418;2024-03-02T06:10:54;14.80;34.40
22827;DHT22;11580;52.562;13.418;2024-03-02T06:13:22;14.80;35.10
22827;DHT22;11580;52.562;13.418;2024-03-02T06:15:51;14.80;34.30
22827;DHT22;11580;52.562;13.418;2024-03-02T06:18:18;14.80;35.10
22827;DHT22;11580;52.562;13.418;2024-03-02T06:20:45;14.80;35.10
22827;DHT22;11580;52.562;13.418;2024-03-02T06:23:13;14.80;34.30
22827;DHT22;11580;52.562;13.418;2024-03-02T06:25:41;14.80;34.30
22827;DHT22;11580;52.562;13.418;2024-03-02T06:28:08;14.80;35.00
22827;DHT22;11580;52.562;13.418;2024-03-02T06:30:35;14.80;34.20
22827;DHT22;11580;52.562;13.418;2024-03-02T06:33:03;14.80;34.20
22827;DHT22;11580;52.562;13.418;2024-03-02T06:35:31;14.80;34.20
22827;DHT22;11580;52.562;13.418;2024-03-02T06:37:58;14.80;34.90
22827;DHT22;11580;52.562;13.418;2024-03-02T06:40:27;14.80;34.20
22827;DHT22;11580;52.562;13.418;2024-03-02T06:42:54;14.80;34.10
22827;DHT22;11580;52.562;13.418;2024-03-02T06:45:22;14.80;34.00
22827;DHT22;11580;52.562;13.418;2024-03-02T06:47:49;14.80;33.90
22827;DHT22;11580;52.562;13.418;2024-03-02T06:50:16;14.80;33.80
22827;DHT22;11580;52.562;13.418;2024-03-02T06:52:43;14.80;33.80
22827;DHT22;11580;52.562;13.418;2024-03-02T06:55:10;14.80;33.80
22827;DHT22;11580;52.562;13.418;2024-03-02T06:57:39;14.80;33.90
22827;DHT22;11580;52.562;13.418;2024-03-02T07:00:06;14.80;34.60
22827;DHT22;11580;52.562;13.418;2024-03-02T07:02:34;14.80;34.00
22827;DHT22;11580;52.562;13.418;2024-03-02T07:05:02;14.80;34.00
22827;DHT22;11580;52.562;13.418;2024-03-02T07:07:30;14.80;34.00
22827;DHT22;11580;52.562;13.418;2024-03-02T07:09:57;14.80;34.00
22827;DHT22;11580;52.562;13.418;2024-03-02T07:12:24;14.90;34.10
22827;DHT22;11580;52.562;13.418;2024-03-02T07:14:53;14.90;34.80
22827;DHT22;11580;52.562;13.418;2024-03-02T07:17:33;14.90;34.00
22827;DHT22;11580;52.562;13.418;2024-03-02T07:20:03;15.00;34.00
22827;DHT22;11580;52.562;13.418;2024-03-02T07:22:32;15.00;34.20
22827;DHT22;11580;52.562;13.418;2024-03-02T07:25:00;15.10;34.50
22827;DHT22;11580;52.562;13.418;2024-03-02T07:27:28;15.10;35.00
22827;DHT22;11580;52.562;13.418;2024-03-02T07:29:56;15.10;34.90
22827;DHT22;11580;52.562;13.418;2024-03-02T07:32:24;15.20;34.00
22827;DHT22;11580;52.562;13.418;2024-03-02T07:34:51;15.20;33.90
22827;DHT22;11580;52.562;13.418;2024-03-02T07:37:18;15.30;34.00
22827;DHT22;11580;52.562;13.418;2024-03-02T07:39:46;15.30;34.00
22827;DHT22;11580;52.562;13.418;2024-03-02T07:42:13;15.40;33.90
22827;DHT22;11580;52.562;13.418;2024-03-02T07:44:40;15.40;33.60
22827;DHT22;11580;52.562;13.418;2024-03-02T07:47:09;15.50;33.50
22827;DHT22;11580;52.562;13.418;2024-03-02T07:49:36;15.50;33.20
22827;DHT22;11580;52.562;13.418;2024-03-02T07:52:04;15.60;33.10
22827;DHT22;11580;52.562;13.418;2024-03-02T07:54:31;15.60;33.00
22827;DHT22;11580;52.562;13.418;2024-03-02T07:56:58;15.60;32.80
22827;DHT22;11580;52.562;13.418;2024-03-02T07:59:25;15.70;32.90
22827;DHT22;11580;52.562;13.418;2024-03-02T08:01:52;15.70;32.90
22827;DHT22;11580;52.562;13.418;2024-03-02T08:04:22;15.70;32.90
22827;DHT22;11580;52.562;13.418;2024-03-02T08:06:49;15.80;33.00
22827;DHT22;11580;52.562;13.418;2024-03-02T08:09:16;15.80;33.00
22827;DHT22;11580;52.562;13.418;2024-03-02T08:11:43;15.80;33.00
22827;DHT22;11580;52.562;13.418;2024-03-02T08:14:11;15.90;33.10
22827;DHT22;11580;52.562;13.418;2024-03-02T08:16:38;15.90;33.10
22827;DHT22;11580;52.562;13.418;2024-03-02T08:19:05;15.90;33.10
22827;DHT22;11580;52.562;13.418;2024-03-02T08:21:33;15.90;32.60
22827;DHT22;11580;52.562;13.418;2024-03-02T08:24:01;16.00;32.60
22827;DHT22;11580;52.562;13.418;2024-03-02T08:26:29;16.00;33.30
22827;DHT22;11580;52.562;13.418;2024-03-02T08:28:57;16.00;33.20
22827;DHT22;11580;52.562;13.418;2024-03-02T08:31:24;16.00;32.50
22827;DHT22;11580;52.562;13.418;2024-03-02T08:33:51;16.10;32.50
22827;DHT22;11580;52.562;13.418;2024-03-02T08:36:19;16.10;33.00
22827;DHT22;11580;52.562;13.418;2024-03-02T08:38:48;16.10;32.20
22827;DHT22;11580;52.562;13.418;2024-03-02T08:41:16;16.20;31.90
22827;DHT22;11580;52.562;13.418;2024-03-02T08:43:44;16.20;31.90
22827;DHT22;11580;52.562;13.418;2024-03-02T08:46:11;16.20;31.80
22827;DHT22;11580;52.562;13.418;2024-03-02T08:48:38;16.20;31.80
22827;DHT22;11580;52.562;13.418;2024-03-02T08:51:06;16.20;31.70
22827;DHT22;11580;52.562;13.418;2024-03-02T08:53:36;16.30;31.80
22827;DHT22;11580;52.562;13.418;2024-03-02T08:56:05;16.30;32.30
22827;DHT22;11580;52.562;13.418;2024-03-02T08:58:32;16.30;31.30
22827;DHT22;11580;52.562;13.418;2024-03-02T09:01:00;16.30;31.50
22827;DHT22;11580;52.562;13.418;2024-03-02T09:03:27;16.30;31.40
22827;DHT22;11580;52.562;13.418;2024-03-02T09:05:54;16.30;31.30
22827;DHT22;11580;52.562;13.418;2024-03-02T09:08:21;16.30;31.10
22827;DHT22;11580;52.562;13.418;2024-03-02T09:10:49;16.30;31.00
22827;DHT22;11580;52.562;13.418;2024-03-02T09:13:17;16.30;31.10
22827;DHT22;11580;52.562;13.418;2024-03-02T09:15:45;16.30;31.00
22827;DHT22;11580;52.562;13.418;2024-03-02T09:18:13;16.30;31.10
22827;DHT22;11580;52.562;13.418;2024-03-02T09:20:41;16.30;31.10
22827;DHT22;11580;52.562;13.418;2024-03-02T09:23:08;16.20;31.10
22827;DHT22;11580;52.562;13.418;2024-03-02T09:25:35;16.20;31.10
22827;DHT22;11580;52.562;13.418;2024-03-02T09:28:03;16.20;31.10
22827;DHT22;11580;52.562;13.418;2024-03-02T09:30:32;16.20;31.10
22827;DHT22;11580;52.562;13.418;2024-03-02T09:32:59;16.30;31.10
22827;DHT22;11580;52.562;13.418;2024-03-02T09:35:26;16.30;31.20
22827;DHT22;11580;52.562;13.418;2024-03-02T09:37:53;16.30;31.20
22827;DHT22;11580;52.562;13.418;2024-03-02T09:40:22;16.30;31.40
22827;DHT22;11580;52.562;13.418;2024-03-02T09:42:49;16.40;31.50
22827;DHT22;11580;52.562;13.418;2024-03-02T09:45:23;16.40;32.40
22827;DHT22;11580;52.562;13.418;2024-03-02T09:47:52;16.50;31.30
22827;DHT22;11580;52.562;13.418;2024-03-02T09:50:19;16.60;31.60
22827;DHT22;11580;52.562;13.418;2024-03-02T09:52:48;16.70;31.70
22827;DHT22;11580;52.562;13.418;2024-03-02T09:55:16;16.90;31.50
22827;DHT22;11580;52.562;13.418;2024-03-02T09:57:45;17.00;31.70
22827;DHT22;11580;52.562;13.418;2024-03-02T10:00:15;17.20;31.70
22827;DHT22;11580;52.562;13.418;2024-03-02T10:02:42;17.30;31.30
22827;DHT22;11580;52.562;13.418;2024-03-02T10:05:11;17.50;31.20
22827;DHT22;11580;52.562;13.418;2024-03-02T10:07:38;17.60;30.70
22827;DHT22;11580;52.562;13.418;2024-03-02T10:10:15;17.80;30.90
22827;DHT22;11580;52.562;13.418;2024-03-02T10:12:43;17.90;29.80
22827;DHT22;11580;52.562;13.418;2024-03-02T10:15:10;18.10;30.60
22827;DHT22;11580;52.562;13.418;2024-03-02T10:17:37;18.20;30.30
22827;DHT22;11580;52.562;13.418;2024-03-02T10:20:25;18.30;30.10
22827;DHT22;11580;52.562;13.418;2024-03-02T10:22:54;18.50;29.30
22827;DHT22;11580;52.562;13.418;2024-03-02T10:25:29;18.60;30.00
22827;DHT22;11580;52.562;13.418;2024-03-02T10:27:58;18.70;28.80
22827;DHT22;11580;52.562;13.418;2024-03-02T10:30:26;18.80;29.50
22827;DHT22;11580;52.562;13.418;2024-03-02T10:32:53;18.90;29.40
22827;DHT22;11580;52.562;13.418;2024-03-02T10:35:23;19.00;29.10
22827;DHT22;11580;52.562;13.418;2024-03-02T10:37:52;19.10;28.80
22827;DHT22;11580;52.562;13.418;2024-03-02T10:40:22;19.20;28.60
22827;DHT22;11580;52.562;13.418;2024-03-02T10:42:50;19.30;28.40
22827;DHT22;11580;52.562;13.418;2024-03-02T10:45:20;19.40;28.80
22827;DHT22;11580;52.562;13.418;2024-03-02T10:47:48;19.40;28.40
22827;DHT22;11580;52.562;13.418;2024-03-02T10:50:16;19.50;28.50
22827;DHT22;11580;52.562;13.418;2024-03-02T10:52:45;19.60;28.40
22827;DHT22;11580;52.562;13.418;2024-03-02T10:55:13;19.70;27.80
22827;DHT22;11580;52.562;13.418;2024-03-02T10:57:50;19.80;28.00
22827;DHT22;11580;52.562;13.418;2024-03-02T11:00:19;19.80;26.70
22827;DHT22;11580;52.562;13.418;2024-03-02T11:02:51;19.90;27.60
22827;DHT22;11580;52.562;13.418;2024-03-02T11:05:26;19.90;27.20
22827;DHT22;11580;52.562;13.418;2024-03-02T11:08:01;19.90;26.20
22827;DHT22;11580;52.562;13.418;2024-03-02T11:10:34;20.00;26.10
22827;DHT22;11580;52.562;13.418;2024-03-02T11:13:05;20.00;26.30
22827;DHT22;11580;52.562;13.418;2024-03-02T11:15:36;19.90;26.30
22827;DHT22;11580;52.562;13.418;2024-03-02T11:18:05;19.90;26.50
22827;DHT22;11580;52.562;13.418;2024-03-02T11:20:36;19.80;26.30
22827;DHT22;11580;52.562;13.418;2024-03-02T11:23:08;19.70;25.90
22827;DHT22;11580;52.562;13.418;2024-03-02T11:25:36;19.60;25.90
22827;DHT22;11580;52.562;13.418;2024-03-02T11:28:06;19.50;26.30
22827;DHT22;11580;52.562;13.418;2024-03-02T11:30:50;19.40;26.20
22827;DHT22;11580;52.562;13.418;2024-03-02T11:33:23;19.30;25.60
22827;DHT22;11580;52.562;13.418;2024-03-02T11:35:53;19.20;25.80
22827;DHT22;11580;52.562;13.418;2024-03-02T11:38:22;19.10;26.50
22827;DHT22;11580;52.562;13.418;2024-03-02T11:40:50;19.00;26.40
22827;DHT22;11580;52.562;13.418;2024-03-02T11:43:18;19.00;26.70
22827;DHT22;11580;52.562;13.418;2024-03-02T11:45:46;19.00;26.80
22827;DHT22;11580;52.562;13.418;2024-03-02T11:48:14;19.00;27.30
22827;DHT22;11580;52.562;13.418;2024-03-02T11:50:46;19.00;26.50
22827;DHT22;11580;52.562;13.418;2024-03-02T11:53:15;19.10;26.60
22827;DHT22;11580;52.562;13.418;2024-03-02T11:55:44;19.10;26.40
22827;DHT22;11580;52.562;13.418;2024-03-02T11:58:12;19.20;26.50
22827;DHT22;11580;52.562;13.418;2024-03-02T12:00:40;19.20;26.10
22827;DHT22;11580;52.562;13.418;2024-03-02T12:03:09;19.40;26.80
22827;DHT22;11580;52.562;13.418;2024-03-02T12:05:39;19.40;26.40
22827;DHT22;11580;52.562;13.418;2024-03-02T12:08:07;19.50;26.30
22827;DHT22;11580;52.562;13.418;2024-03-02T12:10:35;19.60;26.20
22827;DHT22;11580;52.562;13.418;2024-03-02T12:13:05;19.80;26.20
22827;DHT22;11580;52.562;13.418;2024-03-02T12:15:37;19.90;25.70
22827;DHT22;11580;52.562;13.418;2024-03-02T12:18:05;20.00;26.10
22827;DHT22;11580;52.562;13.418;2024-03-02T12:20:33;20.20;25.50
22827;DHT22;11580;52.562;13.418;2024-03-02T12:23:02;20.30;25.60
22827;DHT22;11580;52.562;13.418;2024-03-02T12:25:32;20.40;25.40
22827;DHT22;11580;52.562;13.418;2024-03-02T12:28:00;20.50;25.20
22827;DHT22;11580;52.562;13.418;2024-03-02T12:30:30;20.60;25.10
22827;DHT22;11580;52.562;13.418;2024-03-02T12:33:01;20.70;24.50
22827;DHT22;11580;52.562;13.418;2024-03-02T12:35:29;20.80;25.10
22827;DHT22;11580;52.562;13.418;2024-03-02T12:37:57;20.90;24.90
22827;DHT22;11580;52.562;13.418;2024-03-02T12:40:24;20.90;24.90
22827;DHT22;11580;52.562;13.418;2024-03-02T12:42:53;21.00;24.50
22827;DHT22;11580;52.562;13.418;2024-03-02T12:45:20;21.20;24.50
22827;DHT22;11580;52.562;13.418;2024-03-02T12:47:50;21.20;24.20
22827;DHT22;11580;52.562;13.418;2024-03-02T12:50:18;21.30;23.70
22827;DHT22;11580;52.562;13.418;2024-03-02T12:52:51;21.40;24.00
22827;DHT22;11580;52.562;13.418;2024-03-02T12:55:20;21.50;22.90
22827;DHT22;11580;52.562;13.418;2024-03-02T12:57:50;21.50;23.60
22827;DHT22;11580;52.562;13.418;2024-03-02T13:00:18;21.60;23.40
22827;DHT22;11580;52.562;13.418;2024-03-02T13:02:46;21.70;24.20
22827;DHT22;11580;52.562;13.418;2024-03-02T13:05:17;21.70;23.50
22827;DHT22;11580;52.562;13.418;2024-03-02T13:07:47;21.80;22.90
22827;DHT22;11580;52.562;13.418;2024-03-02T13:10:14;21.80;23.30
22827;DHT22;11580;52.562;13.418;2024-03-02T13:12:42;21.90;23.30
22827;DHT22;11580;52.562;13.418;2024-03-02T13:15:09;21.90;23.20
22827;DHT22;11580;52.562;13.418;2024-03-02T13:17:37;22.00;23.00
22827;DHT22;11580;52.562;13.418;2024-03-02T13:20:06;22.10;23.10
22827;DHT22;11580;52.562;13.418;2024-03-02T13:22:37;22.10;22.80
22827;DHT22;11580;52.562;13.418;2024-03-02T13:25:05;22.20;22.60
22827;DHT22;11580;52.562;13.418;2024-03-02T13:27:36;22.20;22.60
22827;DHT22;11580;52.562;13.418;2024-03-02T13:30:04;22.30;22.60
22827;DHT22;11580;52.562;13.418;2024-03-02T13:32:32;22.20;22.00
22827;DHT22;11580;52.562;13.418;2024-03-02T13:34:59;22.20;21.80
22827;DHT22;11580;52.562;13.418;2024-03-02T13:37:26;22.20;22.20
22827;DHT22;11580;52.562;13.418;2024-03-02T13:39:55;22.10;21.40
22827;DHT22;11580;52.562;13.418;2024-03-02T13:42:22;22.00;21.50
22827;DHT22;11580;52.562;13.418;2024-03-02T13:44:49;21.90;21.70
22827;DHT22;11580;52.562;13.418;2024-03-02T13:47:18;21.80;21.10
22827;DHT22;11580;52.562;13.418;2024-03-02T13:49:46;21.70;20.90
22827;DHT22;11580;52.562;13.418;2024-03-02T13:52:14;21.60;21.00
22827;DHT22;11580;52.562;13.418;2024-03-02T13:54:43;21.40;20.90
22827;DHT22;11580;52.562;13.418;2024-03-02T13:57:13;21.30;21.00
22827;DHT22;11580;52.562;13.418;2024-03-02T13:59:41;21.20;20.80
22827;DHT22;11580;52.562;13.418;2024-03-02T14:02:09;21.10;21.10
22827;DHT22;11580;52.562;13.418;2024-03-02T14:04:38;21.00;21.00
22827;DHT22;11580;52.562;13.418;2024-03-02T14:07:05;21.00;21.10
22827;DHT22;11580;52.562;13.418;2024-03-02T14:09:33;20.90;21.00
22827;DHT22;11580;52.562;13.418;2024-03-02T14:12:01;20.80;21.20
22827;DHT22;11580;52.562;13.418;2024-03-02T14:14:30;20.80;21.90
22827;DHT22;11580;52.562;13.418;2024-03-02T14:16:58;20.70;21.00
22827;DHT22;11580;52.562;13.418;2024-03-02T14:19:29;20.70;21.40
22827;DHT22;11580;52.562;13.418;2024-03-02T14:21:56;20.70;22.00
22827;DHT22;11580;52.562;13.418;2024-03-02T14:24:23;20.70;21.40
22827;DHT22;11580;52.562;13.418;2024-03-02T14:26:51;20.70;21.90
22827;DHT22;11580;52.562;13.418;2024-03-02T14:29:19;20.60;21.20
22827;DHT22;11580;52.562;13.418;2024-03-02T14:31:47;20.60;21.30
22827;DHT22;11580;52.562;13.418;2024-03-02T14:34:14;20.50;21.00
22827;DHT22;11580;52.562;13.418;2024-03-02T14:36:42;20.50;21.80
22827;DHT22;11580;52.562;13.418;2024-03-02T14:39:09;20.40;21.20
22827;DHT22;11580;52.562;13.418;2024-03-02T14:41:37;20.40;21.80
22827;DHT22;11580;52.562;13.418;2024-03-02T14:44:05;20.30;21.70
22827;DHT22;11580;52.562;13.418;2024-03-02T14:46:32;20.20;21.20
22827;DHT22;11580;52.562;13.418;2024-03-02T14:49:00;20.20;21.80
22827;DHT22;11580;52.562;13.418;2024-03-02T14:51:28;20.10;21.20
22827;DHT22;11580;52.562;13.418;2024-03-02T14:53:56;20.00;21.20
22827;DHT22;11580;52.562;13.418;2024-03-02T14:56:23;19.90;21.20
22827;DHT22;11580;52.562;13.418;2024-03-02T14:58:50;19.80;21.30
22827;DHT22;11580;52.562;13.418;2024-03-02T15:01:17;19.70;21.30
22827;DHT22;11580;52.562;13.418;2024-03-02T15:03:46;19.60;21.40
22827;DHT22;11580;52.562;13.418;2024-03-02T15:06:16;19.50;21.40
22827;DHT22;11580;52.562;13.418;2024-03-02T15:08:43;19.40;21.30
22827;DHT22;11580;52.562;13.418;2024-03-02T15:11:12;19.20;21.40
22827;DHT22;11580;52.562;13.418;2024-03-02T15:13:40;19.10;21.50
22827;DHT22;11580;52.562;13.418;2024-03-02T15:16:07;19.00;22.20
22827;DHT22;11580;52.562;13.418;2024-03-02T15:18:34;18.90;22.20
22827;DHT22;11580;52.562;13.418;2024-03-02T15:21:01;18.80;21.80
22827;DHT22;11580;52.562;13.418;2024-03-02T15:23:30;18.70;21.90